Time;durP1;ratioP1;P1;durP2;ratioP2;P2;SDS_P1;SDS_P2;PMS_P1;PMS_P2;Temp;Humidity;BMP_temperature;BMP_pressure;BME280_temperature;BME280_humidity;BME280_pressure;Samples;Min_cycle;Max_cycle;Signal;HPM_P1;HPM_P2
2022/04/20 07:00:21;;;;;;;1.20;1.10;;;13.20;73.20;;;;;;6204811;23;20017;-80
2022/04/20 07:02:46;;;;;;;3.72;1.40;;;13.20;73.60;;;;;;6212545;23;20385;-80
2022/04/20 07:05:12;;;;;;;1.77;1.60;;;13.20;73.70;;;;;;6211278;23;20002;-79
2022/04/20 07:07:38;;;;;;;1.20;1.10;;;13.20;74.00;;;;;;6209458;23;20051;-79
2022/04/20 07:10:04;;;;;;;4.88;1.23;;;13.30;73.20;;;;;;6208183;23;20436;-80
2022/04/20 07:12:30;;;;;;;1.63;1.10;;;13.20;72.60;;;;;;6209522;23;20005;-79
2022/04/20 07:14:56;;;;;;;1.27;1.17;;;13.20;72.70;;;;;;6208327;23;20000;-81
2022/04/20 07:17:22;;;;;;;1.10;1.10;;;13.30;72.80;;;;;;6208232;23;20004;-80
2022/04/20 07:19:47;;;;;;;1.67;1.30;;;13.40;73.00;;;;;;6209176;23;20090;-79
2022/04/20 07:22:13;;;;;;;2.20;1.25;;;13.40;73.60;;;;;;6210933;23;20436;-80
2022/04/20 07:24:39;;;;;;;1.33;1.20;;;13.50;72.10;;;;;;6210962;23;20004;-79
2022/04/20 07:27:05;;;;;;;1.30;1.20;;;13.60;71.80;;;;;;6211710;23;20004;-79
2022/04/20 07:29:30;;;;;;;1.27;1.20;;;13.50;71.60;;;;;;6211532;23;20005;-80
2022/04/20 07:31:56;;;;;;;2.38;1.50;;;13.40;70.70;;;;;;6185482;23;20033;-79
2022/04/20 07:34:22;;;;;;;2.55;1.42;;;13.40;70.00;;;;;;6211151;23;20403;-80
2022/04/20 07:36:49;;;;;;;3.83;1.15;;;13.50;70.90;;;;;;6211619;23;20005;-80
2022/04/20 07:39:15;;;;;;;1.25;1.08;;;13.50;71.00;;;;;;6212296;23;20007;-79
2022/04/20 07:41:41;;;;;;;2.70;1.13;;;13.50;70.60;;;;;;6211479;23;20673;-79
2022/04/20 07:44:06;;;;;;;3.35;1.55;;;13.50;71.00;;;;;;6212158;23;19997;-79
2022/04/20 07:46:32;;;;;;;1.50;1.40;;;13.50;70.30;;;;;;6211541;23;20070;-80
2022/04/20 07:50:17;;;;;;;1.40;1.30;;;13.50;70.00;;;;;;6211330;23;20376;-80
2022/04/20 07:51:44;;;;;;;2.42;1.08;;;13.60;70.60;;;;;;6211274;23;20008;-80
2022/04/20 07:54:09;;;;;;;5.07;1.30;;;13.70;70.70;;;;;;6211684;23;20028;-79
2022/04/20 07:56:35;;;;;;;2.75;1.48;;;13.80;71.10;;;;;;6211890;23;20008;-79
2022/04/20 07:59:01;;;;;;;1.75;1.30;;;13.80;69.40;;;;;;6211221;23;20001;-78
2022/04/20 08:01:26;;;;;;;1.60;1.48;;;13.90;68.90;;;;;;6231189;23;20008;-79
2022/04/20 08:03:52;;;;;;;1.00;1.00;;;14.00;69.50;;;;;;6241478;23;20052;-80
2022/04/20 08:06:18;;;;;;;1.30;1.20;;;14.00;67.80;;;;;;6241733;23;20305;-80
2022/04/20 08:08:43;;;;;;;1.23;1.13;;;14.10;66.70;;;;;;6242817;23;20004;-80
2022/04/20 08:11:10;;;;;;;1.30;1.20;;;14.00;66.50;;;;;;6244226;23;20075;-72
2022/04/20 08:16:21;;;;;;;1.48;1.30;;;14.10;66.80;;;;;;6243175;23;20099;-73
2022/04/20 08:18:46;;;;;;;7.72;1.73;;;13.90;65.90;;;;;;6243319;23;20001;-71
2022/04/20 08:21:12;;;;;;;3.20;1.17;;;14.00;66.90;;;;;;6243269;23;20011;-71
2022/04/20 08:23:38;;;;;;;2.13;1.45;;;14.00;65.60;;;;;;6243629;23;20007;-71
2022/04/20 08:26:04;;;;;;;1.90;1.25;;;14.10;66.20;;;;;;6237315;23;20007;-73
2022/04/20 08:28:30;;;;;;;2.08;1.10;;;14.00;65.20;;;;;;6239671;23;20006;-71
2022/04/20 08:30:59;;;;;;;1.30;1.20;;;14.00;66.90;;;;;;6241016;23;20074;-72
2022/04/20 08:33:25;;;;;;;2.28;1.20;;;14.10;66.60;;;;;;6240378;23;20082;-71
2022/04/20 08:35:51;;;;;;;2.15;1.35;;;14.10;66.50;;;;;;6242027;23;20447;-71
2022/04/20 08:38:16;;;;;;;1.42;1.33;;;14.20;66.20;;;;;;6241673;23;20427;-72
2022/04/20 08:40:43;;;;;;;1.20;1.10;;;14.30;64.10;;;;;;6242001;23;20004;-72
2022/04/20 08:43:11;;;;;;;1.40;1.17;;;14.20;63.00;;;;;;6241362;23;19996;-72
2022/04/20 08:45:39;;;;;;;1.05;0.85;;;14.30;63.60;;;;;;6240961;23;20078;-74
2022/04/20 08:48:06;;;;;;;1.30;1.20;;;14.30;63.30;;;;;;6242579;22;20443;-72
2022/04/20 08:50:31;;;;;;;1.40;1.30;;;14.40;64.60;;;;;;6240478;23;20004;-71
2022/04/20 08:53:01;;;;;;;2.33;1.15;;;14.50;64.60;;;;;;6241878;22;20007;-73
2022/04/20 08:55:27;;;;;;;3.38;0.95;;;14.60;63.80;;;;;;6239697;23;20466;-73
2022/04/20 08:57:53;;;;;;;1.52;1.40;;;14.70;62.10;;;;;;6243048;22;20004;-73
2022/04/20 09:00:24;;;;;;;1.20;1.00;;;14.70;62.70;;;;;;6245813;22;20062;-73
2022/04/20 09:02:52;;;;;;;1.40;1.30;;;14.70;62.50;;;;;;6245983;22;20079;-73
2022/04/20 09:05:20;;;;;;;3.03;1.25;;;14.60;61.20;;;;;;6245725;22;20580;-73
2022/04/20 09:07:46;;;;;;;1.75;1.08;;;14.50;61.10;;;;;;6245046;22;19996;-73
2022/04/20 09:10:13;;;;;;;3.17;1.50;;;14.60;62.50;;;;;;6246047;22;20035;-73
2022/04/20 09:12:43;;;;;;;1.83;1.30;;;14.60;63.10;;;;;;6245978;22;20001;-73
2022/04/20 09:15:09;;;;;;;2.35;1.50;;;14.70;62.30;;;;;;6245975;22;20004;-73
2022/04/20 09:17:44;;;;;;;2.92;1.20;;;14.70;62.60;;;;;;6246026;22;20000;-73
2022/04/20 09:20:16;;;;;;;1.25;1.15;;;14.70;62.60;;;;;;6246059;22;20431;-73
2022/04/20 09:22:57;;;;;;;;;;;14.70;61.70;;;;;;6246758;22;20390;-73
2022/04/20 09:25:33;;;;;;;1.15;1.10;;;14.70;60.20;;;;;;6246107;22;19961;-73
2022/04/20 09:27:59;;;;;;;1.45;0.98;;;14.80;60.60;;;;;;6246078;22;20007;-73
2022/04/20 09:30:25;;;;;;;3.67;1.17;;;14.70;60.20;;;;;;6245827;22;20000;-73
2022/04/20 09:32:50;;;;;;;1.05;0.95;;;14.70;59.60;;;;;;6246027;22;20001;-73
2022/04/20 09:35:21;;;;;;;3.33;1.10;;;14.80;61.20;;;;;;6246075;23;20010;-73
2022/04/20 09:38:06;;;;;;;1.02;1.02;;;14.80;59.80;;;;;;6243566;22;19999;-73
2022/04/20 09:40:37;;;;;;;1.27;1.10;;;14.90;59.80;;;;;;6242126;22;20090;-74
2022/04/20 09:43:04;;;;;;;3.25;1.10;;;15.00;59.20;;;;;;6241928;22;20024;-73
2022/04/20 09:45:30;;;;;;;2.47;1.30;;;15.10;60.00;;;;;;6240427;22;20023;-73
2022/04/20 09:50:43;;;;;;;1.00;1.00;;;15.10;59.30;;;;;;6239875;23;20031;-73
2022/04/20 09:53:12;;;;;;;5.28;0.95;;;15.10;57.70;;;;;;6240060;22;20011;-73
2022/04/20 09:55:39;;;;;;;2.30;0.80;;;15.10;57.70;;;;;;6239496;22;20070;-73
2022/04/20 09:58:18;;;;;;;2.53;0.98;;;15.30;58.40;;;;;;6237811;23;20062;-73
2022/04/20 10:00:50;;;;;;;1.30;1.20;;;15.10;55.40;;;;;;6239174;22;20498;-73
2022/04/20 10:03:29;;;;;;;1.30;1.20;;;15.00;55.40;;;;;;6239920;22;20000;-74
2022/04/20 10:05:59;;;;;;;7.20;5.93;;;15.10;55.90;;;;;;6240207;22;20079;-74
2022/04/20 10:08:26;;;;;;;6.53;5.95;;;15.20;58.20;;;;;;6239379;22;20222;-73
2022/04/20 10:10:54;;;;;;;1.80;1.70;;;15.40;58.90;;;;;;6239096;22;20003;-73
2022/04/20 10:13:22;;;;;;;6.53;1.50;;;15.50;58.50;;;;;;6239643;22;20034;-73
2022/04/20 10:16:07;;;;;;;1.80;1.40;;;15.60;59.20;;;;;;6239897;22;20004;-73
2022/04/20 10:18:39;;;;;;;1.27;1.17;;;15.70;59.10;;;;;;6239790;22;20004;-74
2022/04/20 10:21:13;;;;;;;1.90;1.80;;;15.70;57.10;;;;;;6239705;22;20272;-73
2022/04/20 10:23:47;;;;;;;2.70;1.42;;;15.80;58.60;;;;;;6237519;23;20023;-73
2022/04/20 10:26:14;;;;;;;1.20;1.20;;;16.00;56.70;;;;;;6238825;22;20326;-73
2022/04/20 10:29:01;;;;;;;1.42;1.33;;;16.00;57.10;;;;;;6239011;22;20071;-73
2022/04/20 10:31:49;;;;;;;1.80;1.48;;;16.20;57.40;;;;;;6238779;22;20019;-73
2022/04/20 10:34:16;;;;;;;1.40;1.30;;;16.20;56.90;;;;;;6239559;23;20052;-74
2022/04/20 10:37:03;;;;;;;1.73;1.50;;;16.20;57.20;;;;;;6239039;22;20000;-73
2022/04/20 10:39:36;;;;;;;1.15;1.05;;;16.20;57.60;;;;;;6238810;22;20000;-74
2022/04/20 10:42:11;;;;;;;1.70;1.20;;;16.30;57.60;;;;;;6238918;22;20000;-73
2022/04/20 10:44:55;;;;;;;2.38;1.05;;;16.30;57.10;;;;;;6239058;22;19992;-74
2022/04/20 10:47:28;;;;;;;1.10;1.10;;;16.40;59.00;;;;;;6240211;23;20000;-75
2022/04/20 10:50:16;;;;;;;1.83;1.20;;;16.50;58.40;;;;;;6240279;22;20000;-75
2022/04/20 10:53:01;;;;;;;1.33;1.23;;;16.50;56.70;;;;;;6240707;22;20645;-73
2022/04/20 10:55:36;;;;;;;1.00;1.00;;;16.50;58.40;;;;;;6241502;22;20526;-73
2022/04/20 10:58:21;;;;;;;2.60;1.45;;;16.40;55.70;;;;;;6241609;23;20004;-73
2022/04/20 11:00:47;;;;;;;2.95;1.63;;;16.40;55.90;;;;;;6239527;23;20044;-73
2022/04/20 11:03:13;;;;;;;1.55;1.45;;;16.40;57.90;;;;;;6240871;22;20387;-74
2022/04/20 11:05:55;;;;;;;1.60;1.25;;;16.30;56.90;;;;;;6240168;22;20004;-74
2022/04/20 11:08:24;;;;;;;3.95;1.50;;;16.30;57.50;;;;;;6239997;22;20030;-74
2022/04/20 11:19:59;;;;;;;1.20;1.10;;;16.70;57.10;;;;;;6240018;23;20528;-73
2022/04/20 11:22:25;;;;;;;1.45;1.35;;;16.80;57.40;;;;;;6240332;22;19996;-73
2022/04/20 11:25:05;;;;;;;1.40;1.30;;;16.90;58.30;;;;;;6240895;22;20007;-73
2022/04/20 11:27:36;;;;;;;2.50;1.70;;;16.80;58.00;;;;;;6240634;22;20083;-74
2022/04/20 11:30:06;;;;;;;2.13;1.50;;;16.80;58.40;;;;;;6239395;22;19996;-73
2022/04/20 11:32:32;;;;;;;2.10;1.50;;;16.80;58.90;;;;;;6239529;22;20573;-74
2022/04/20 11:35:11;;;;;;;1.75;1.65;;;16.80;58.40;;;;;;6240640;22;20008;-73
2022/04/20 11:37:39;;;;;;;2.75;1.80;;;16.80;58.00;;;;;;6240178;22;20098;-74
2022/04/20 11:40:12;;;;;;;2.78;1.88;;;16.70;58.80;;;;;;6239991;22;20008;-74
2022/04/20 11:42:39;;;;;;;3.60;1.70;;;16.70;59.10;;;;;;6239922;22;19996;-73
2022/04/20 11:45:06;;;;;;;2.20;1.90;;;16.80;60.10;;;;;;6240601;22;20003;-73
2022/04/20 11:47:42;;;;;;;1.50;1.40;;;16.80;59.00;;;;;;6240141;22;20083;-74
2022/04/20 11:50:08;;;;;;;2.65;1.75;;;16.80;59.20;;;;;;6240181;22;20083;-73
2022/04/20 11:52:34;;;;;;;4.28;2.33;;;16.70;58.40;;;;;;6239768;22;20000;-73
2022/04/20 11:55:05;;;;;;;1.70;1.60;;;16.80;58.40;;;;;;6240591;22;20006;-73
2022/04/20 11:57:30;;;;;;;6.65;1.95;;;16.80;58.70;;;;;;6239449;22;20452;-74
2022/04/20 11:59:58;;;;;;;2.30;2.10;;;16.80;59.00;;;;;;6239140;23;20087;-73
2022/04/20 12:02:25;;;;;;;3.45;2.30;;;17.00;59.50;;;;;;6241136;22;20000;-73
2022/04/20 12:05:08;;;;;;;4.38;2.20;;;17.10;59.20;;;;;;6241949;22;20028;-73
2022/04/20 12:07:35;;;;;;;3.92;2.25;;;17.20;59.70;;;;;;6242240;22;20012;-73
2022/04/20 12:10:02;;;;;;;5.55;2.42;;;17.30;59.50;;;;;;6241934;22;20008;-74
2022/04/20 12:12:30;;;;;;;2.30;2.10;;;17.30;58.00;;;;;;6242653;22;20010;-74
2022/04/20 12:15:05;;;;;;;2.10;1.90;;;17.50;58.50;;;;;;6242393;23;20004;-73
2022/04/20 12:17:32;;;;;;;3.60;1.90;;;17.40;58.20;;;;;;6241438;22;20005;-74
2022/04/20 12:19:58;;;;;;;2.28;1.85;;;17.60;58.50;;;;;;6241470;22;20026;-73
2022/04/20 12:22:23;;;;;;;2.75;2.55;;;17.40;58.00;;;;;;6245974;22;20079;-73
2022/04/20 12:25:10;;;;;;;2.42;2.22;;;17.30;58.50;;;;;;6240451;23;20000;-74
2022/04/20 12:27:51;;;;;;;2.53;2.33;;;17.20;57.60;;;;;;6241142;22;20071;-73
2022/04/20 12:30:34;;;;;;;5.68;2.10;;;17.60;59.70;;;;;;6241250;22;20008;-73
2022/04/20 12:33:08;;;;;;;2.95;2.33;;;18.00;59.40;;;;;;6240296;22;20004;-74
2022/04/20 12:35:39;;;;;;;4.18;2.47;;;18.30;58.30;;;;;;6239084;23;20008;-73
2022/04/20 12:38:13;;;;;;;2.33;2.00;;;18.00;57.00;;;;;;6239879;23;19996;-74
2022/04/20 12:40:43;;;;;;;2.22;1.98;;;18.10;57.70;;;;;;6237582;23;20035;-71
2022/04/20 12:43:12;;;;;;;2.72;2.50;;;18.20;57.50;;;;;;6238939;23;20004;-71
2022/04/20 12:45:38;;;;;;;2.70;2.50;;;18.20;56.60;;;;;;6241715;22;20438;-74
2022/04/20 12:48:06;;;;;;;2.47;2.28;;;18.50;57.90;;;;;;6242619;22;20024;-73
2022/04/20 12:50:39;;;;;;;2.70;2.28;;;18.70;57.10;;;;;;6242103;22;20004;-73
2022/04/20 12:53:06;;;;;;;4.88;2.53;;;19.00;57.30;;;;;;6242417;22;20014;-73
2022/04/20 13:04:19;;;;;;;3.08;2.50;;;19.20;56.60;;;;;;6229787;22;20012;-72
2022/04/20 13:06:45;;;;;;;2.85;2.65;;;19.70;56.80;;;;;;6242383;23;20315;-73
2022/04/20 13:09:11;;;;;;;3.55;2.88;;;19.70;53.90;;;;;;6242922;23;20000;-72
2022/04/20 13:11:36;;;;;;;2.88;2.67;;;19.60;54.70;;;;;;6241768;23;20010;-72
2022/04/20 13:14:03;;;;;;;3.72;3.20;;;19.60;54.20;;;;;;6242486;22;20071;-72
2022/04/20 13:16:29;;;;;;;2.75;2.53;;;19.70;53.20;;;;;;6242248;22;20000;-72
2022/04/20 13:18:54;;;;;;;2.92;2.72;;;19.50;53.90;;;;;;6245568;22;20011;-72
2022/04/20 13:21:20;;;;;;;3.17;2.47;;;19.80;55.10;;;;;;6246359;22;20075;-72
2022/04/20 13:23:49;;;;;;;4.38;2.72;;;20.20;54.90;;;;;;6246873;23;20003;-78
2022/04/20 13:28:59;;;;;;;4.32;2.83;;;19.90;54.90;;;;;;6246899;23;20462;-79
2022/04/20 13:31:25;;;;;;;5.03;3.13;;;20.00;53.90;;;;;;6246605;23;20000;-79
2022/04/20 13:33:52;;;;;;;3.17;2.88;;;20.10;53.90;;;;;;6245190;23;20088;-78
2022/04/20 13:36:17;;;;;;;5.60;2.47;;;20.30;54.40;;;;;;6246774;22;20007;-78
2022/04/20 13:38:43;;;;;;;7.70;3.13;;;20.10;54.40;;;;;;6246645;23;20008;-78
2022/04/20 13:41:09;;;;;;;3.78;2.88;;;20.00;52.30;;;;;;6244958;23;20012;-78
2022/04/20 13:43:34;;;;;;;4.18;2.60;;;19.90;53.20;;;;;;6246450;22;20071;-79
2022/04/20 13:46:03;;;;;;;3.67;2.55;;;19.90;52.90;;;;;;6246586;23;19996;-78
2022/04/20 13:48:29;;;;;;;4.55;2.60;;;20.00;52.30;;;;;;6245307;23;20004;-79
2022/04/20 13:50:54;;;;;;;6.20;2.45;;;20.00;52.50;;;;;;6245065;23;20004;-79
2022/04/20 13:53:20;;;;;;;3.38;3.03;;;19.70;52.30;;;;;;6245199;23;20062;-78
2022/04/20 13:55:47;;;;;;;4.05;2.35;;;19.30;52.70;;;;;;6246520;22;19997;-78
2022/04/20 13:58:13;;;;;;;3.85;2.92;;;19.20;54.20;;;;;;6246479;22;20076;-79
2022/04/20 14:00:40;;;;;;;2.75;2.50;;;19.10;54.50;;;;;;6245934;22;20047;-79
2022/04/20 14:03:07;;;;;;;3.03;2.70;;;18.90;54.20;;;;;;6246340;22;20004;-78
2022/04/20 14:05:36;;;;;;;2.65;2.45;;;18.60;54.60;;;;;;6246618;22;20065;-78
2022/04/20 14:08:02;;;;;;;4.32;3.60;;;18.60;55.30;;;;;;6246600;22;19996;-79
2022/04/20 14:10:28;;;;;;;3.25;2.95;;;18.80;54.50;;;;;;6245054;22;20004;-77
2022/04/20 14:12:54;;;;;;;5.78;3.17;;;19.10;54.70;;;;;;6243029;22;20432;-78
2022/04/20 14:15:19;;;;;;;5.63;2.78;;;19.10;54.70;;;;;;6243770;22;20004;-78
2022/04/20 14:17:46;;;;;;;5.13;2.88;;;18.90;53.30;;;;;;6243106;22;20027;-78
2022/04/20 14:20:13;;;;;;;3.00;2.38;;;18.80;54.60;;;;;;6243083;22;20454;-78
2022/04/20 14:22:39;;;;;;;3.10;2.70;;;18.70;54.40;;;;;;6243981;22;19997;-79
2022/04/20 14:33:26;;;;;;;3.47;2.33;;;18.20;55.20;;;;;;6242327;23;20091;-77
2022/04/20 14:35:51;;;;;;;2.30;2.00;;;18.10;55.90;;;;;;6243617;22;20424;-78
2022/04/20 14:38:17;;;;;;;2.83;2.35;;;17.90;55.60;;;;;;6242865;23;20007;-78
2022/04/20 14:40:43;;;;;;;3.28;2.30;;;17.90;56.40;;;;;;6242980;23;20007;-78
2022/04/20 14:43:09;;;;;;;4.60;2.65;;;17.90;56.90;;;;;;6243425;23;20000;-78
2022/04/20 14:45:34;;;;;;;6.45;2.33;;;17.80;55.80;;;;;;6243175;22;20022;-77
2022/04/20 14:48:01;;;;;;;3.63;2.95;;;17.70;55.90;;;;;;6242495;22;20422;-72
2022/04/20 14:50:28;;;;;;;3.42;3.13;;;17.90;56.60;;;;;;6239918;23;20011;-72
2022/04/20 14:52:54;;;;;;;13.52;12.48;;;17.90;56.30;;;;;;6241411;22;20004;-72
2022/04/20 14:55:20;;;;;;;5.32;3.25;;;17.90;55.40;;;;;;6242150;23;20035;-72
2022/04/20 14:57:46;;;;;;;5.55;4.88;;;17.80;55.60;;;;;;6241603;22;20001;-72
2022/04/20 15:00:12;;;;;;;45.67;25.33;;;17.70;55.60;;;;;;6241335;22;20701;-73
2022/04/20 15:02:39;;;;;;;64.43;48.08;;;17.70;56.20;;;;;;6240434;23;20087;-73
2022/04/20 15:05:05;;;;;;;9.40;8.07;;;17.70;56.50;;;;;;6241123;22;20006;-72
2022/04/20 15:07:31;;;;;;;8.48;7.55;;;17.80;57.30;;;;;;6242197;22;20023;-72
2022/04/20 15:09:57;;;;;;;7.53;5.45;;;17.70;56.20;;;;;;6241435;23;20000;-72
2022/04/20 15:12:24;;;;;;;3.50;3.20;;;17.80;56.90;;;;;;6241238;22;20011;-73
2022/04/20 15:14:50;;;;;;;57.55;24.00;;;17.80;56.60;;;;;;6241815;22;20061;-72
2022/04/20 15:17:17;;;;;;;62.40;29.15;;;17.90;56.40;;;;;;6245150;22;20561;-72
2022/04/20 15:19:42;;;;;;;10.32;6.68;;;18.10;56.20;;;;;;6245370;22;20032;-72
2022/04/20 15:22:09;;;;;;;8.93;6.32;;;18.10;55.10;;;;;;6245200;22;20054;-72
2022/04/20 15:24:35;;;;;;;4.95;4.55;;;18.20;56.40;;;;;;6245549;22;20000;-72
2022/04/20 15:27:00;;;;;;;7.13;4.72;;;18.20;55.90;;;;;;6245214;22;20000;-72
2022/04/20 15:29:26;;;;;;;3.65;3.10;;;18.20;55.30;;;;;;6245313;22;20000;-72
2022/04/20 15:31:55;;;;;;;48.83;30.50;;;18.10;55.30;;;;;;6244838;23;20062;-72
2022/04/20 15:34:21;;;;;;;5.10;4.70;;;18.00;54.70;;;;;;6241769;22;20004;-72
2022/04/20 15:36:47;;;;;;;15.27;11.68;;;18.00;55.70;;;;;;6241512;22;20027;-72
2022/04/20 15:39:13;;;;;;;8.00;5.00;;;17.90;54.70;;;;;;6241196;22;20309;-73
2022/04/20 15:41:41;;;;;;;8.27;6.35;;;18.00;55.90;;;;;;6241224;23;20059;-72
2022/04/20 15:44:07;;;;;;;3.85;3.53;;;17.90;55.80;;;;;;6244583;22;20000;-73
2022/04/20 15:46:33;;;;;;;3.50;3.20;;;18.00;55.90;;;;;;6245672;22;20640;-78
2022/04/20 15:48:58;;;;;;;4.95;4.50;;;18.20;55.80;;;;;;6245606;22;20000;-78
2022/04/20 15:51:25;;;;;;;16.98;12.93;;;18.40;54.80;;;;;;6245719;23;20000;-78
2022/04/20 15:53:53;;;;;;;14.13;10.50;;;18.90;54.70;;;;;;6245684;22;20073;-78
2022/04/20 16:01:58;;;;;;;6.50;3.10;;;19.50;51.10;;;;;;6244394;23;20466;-72
2022/04/20 16:55:51;;;;;;;34.75;18.27;;;18.00;55.70;;;;;;6214996;22;20063;-72
2022/04/20 16:58:18;;;;;;;33.53;17.00;;;17.90;56.00;;;;;;6207534;23;20436;-72
2022/04/20 17:00:47;;;;;;;15.35;10.05;;;17.90;56.00;;;;;;6199143;23;228641;-72
2022/04/20 17:03:13;;;;;;;33.25;19.23;;;17.90;56.30;;;;;;6210025;23;20087;-72
2022/04/20 17:05:38;;;;;;;88.32;45.20;;;17.80;55.70;;;;;;6212311;23;20005;-72
2022/04/20 17:08:04;;;;;;;94.30;41.80;;;17.80;55.80;;;;;;6214548;23;20432;-72
2022/04/20 17:10:31;;;;;;;112.43;42.65;;;17.70;56.00;;;;;;6214632;23;20004;-72
2022/04/20 17:12:57;;;;;;;54.20;28.95;;;17.70;56.00;;;;;;6214800;23;19997;-73
2022/04/20 17:15:27;;;;;;;84.65;57.65;;;17.50;55.80;;;;;;6208756;23;20079;-72
2022/04/20 17:17:53;;;;;;;101.65;49.20;;;17.30;55.60;;;;;;6208317;23;20004;-72
2022/04/20 17:28:52;;;;;;;33.70;18.13;;;17.10;56.40;;;;;;6199598;23;20388;-72
2022/04/20 17:31:18;;;;;;;18.45;13.07;;;17.10;56.80;;;;;;6208612;23;19996;-72
2022/04/20 17:33:43;;;;;;;25.13;20.38;;;17.10;57.40;;;;;;6210789;23;20008;-72
2022/04/20 17:38:56;;;;;;;11.70;7.18;;;17.00;57.80;;;;;;6208460;23;20218;-72
2022/04/20 17:41:22;;;;;;;25.42;16.10;;;17.00;58.30;;;;;;6208337;23;20080;-72
2022/04/20 17:43:48;;;;;;;17.77;10.52;;;16.90;58.30;;;;;;6208432;23;20309;-72
2022/04/20 17:46:14;;;;;;;22.70;14.30;;;16.90;58.10;;;;;;6207637;23;20005;-72
2022/04/20 17:48:40;;;;;;;29.00;14.88;;;16.80;57.90;;;;;;6210870;23;20053;-72
2022/04/20 17:51:06;;;;;;;12.23;8.43;;;16.80;57.60;;;;;;6210170;23;20001;-72
2022/04/20 17:53:32;;;;;;;3.65;3.40;;;16.70;57.90;;;;;;6207902;23;20027;-72
2022/04/20 17:55:58;;;;;;;5.13;4.55;;;16.70;57.60;;;;;;6208422;23;20413;-73
2022/04/20 17:58:24;;;;;;;4.25;3.22;;;16.60;57.60;;;;;;6208898;23;20055;-73
2022/04/20 18:00:50;;;;;;;3.30;3.00;;;16.60;57.60;;;;;;6207457;23;20036;-73
2022/04/20 18:03:18;;;;;;;8.13;3.20;;;16.60;58.40;;;;;;6208211;23;20089;-72
2022/04/20 18:05:44;;;;;;;3.05;2.60;;;16.60;59.50;;;;;;6208598;23;20336;-72
2022/04/20 18:08:10;;;;;;;2.78;2.30;;;16.50;59.00;;;;;;6208784;23;20071;-73
2022/04/20 18:10:36;;;;;;;4.95;2.25;;;16.50;59.40;;;;;;6208093;23;20005;-72
2022/04/20 18:13:02;;;;;;;3.13;2.28;;;16.40;59.60;;;;;;6209696;23;20075;-73
2022/04/20 18:15:28;;;;;;;2.50;2.30;;;16.30;59.70;;;;;;6215257;23;20356;-72
2022/04/20 18:17:53;;;;;;;2.28;2.08;;;16.30;59.70;;;;;;6211338;23;20074;-79
2022/04/20 18:20:19;;;;;;;2.70;2.00;;;16.30;60.00;;;;;;6215688;23;20001;-78
2022/04/20 18:22:45;;;;;;;3.13;1.83;;;16.20;60.40;;;;;;6216104;23;20016;-79
2022/04/20 18:25:11;;;;;;;2.35;2.05;;;16.10;60.60;;;;;;6216000;23;20001;-79
2022/04/20 18:27:38;;;;;;;4.93;3.08;;;16.00;60.80;;;;;;6214488;23;20094;-79
2022/04/20 18:30:04;;;;;;;2.38;2.28;;;16.00;61.00;;;;;;6215900;23;20008;-79
2022/04/20 18:32:32;;;;;;;4.90;2.10;;;16.00;61.50;;;;;;6215914;23;20027;-79
2022/04/20 18:34:58;;;;;;;5.18;2.70;;;15.90;62.50;;;;;;6214958;23;20424;-79
2022/04/20 18:37:23;;;;;;;2.50;2.30;;;15.90;62.70;;;;;;6215752;23;20028;-79
2022/04/20 18:39:50;;;;;;;2.42;2.17;;;15.80;63.20;;;;;;6214887;23;20298;-79
2022/04/20 18:42:17;;;;;;;12.27;6.82;;;15.70;64.20;;;;;;6215699;23;20050;-78
2022/04/20 18:44:42;;;;;;;3.45;2.67;;;15.70;64.80;;;;;;6214165;23;20001;-79
2022/04/20 18:47:09;;;;;;;2.58;2.47;;;15.60;63.10;;;;;;6215295;23;20001;-78
2022/04/20 18:49:36;;;;;;;2.70;2.50;;;15.50;62.50;;;;;;6215344;23;20024;-78
2022/04/20 18:52:02;;;;;;;2.53;2.33;;;15.50;62.70;;;;;;6215748;23;20011;-78
2022/04/20 18:59:59;;;;;;;12.50;4.35;;;15.50;63.30;;;;;;6212325;23;20016;-78
2022/04/20 19:02:26;;;;;;;7.07;2.70;;;15.50;62.90;;;;;;6211838;23;20001;-78
2022/04/20 19:04:51;;;;;;;13.35;7.47;;;15.40;62.70;;;;;;6212171;23;20008;-78
2022/04/20 19:07:21;;;;;;;30.50;13.95;;;15.30;61.80;;;;;;6212490;23;20001;-78
2022/04/20 19:09:58;;;;;;;32.60;17.15;;;15.30;62.20;;;;;;6212116;23;20044;-78
2022/04/20 19:12:25;;;;;;;22.65;19.83;;;15.30;62.80;;;;;;6212623;23;20343;-78
2022/04/20 19:14:51;;;;;;;6.38;5.72;;;15.20;62.20;;;;;;6212191;23;20013;-79
2022/04/20 19:17:17;;;;;;;7.60;6.13;;;15.30;62.40;;;;;;6212634;23;20000;-78
2022/04/20 19:19:43;;;;;;;19.15;9.25;;;15.30;62.90;;;;;;6211011;23;20059;-78
2022/04/20 19:22:10;;;;;;;7.95;6.13;;;15.20;62.50;;;;;;6210623;23;20027;-78
2022/04/20 19:24:36;;;;;;;8.60;7.13;;;15.20;62.10;;;;;;6212354;23;19997;-78
2022/04/20 19:27:02;;;;;;;28.13;17.45;;;15.20;62.50;;;;;;6212548;23;20067;-79
2022/04/20 19:29:28;;;;;;;12.48;6.95;;;15.10;62.20;;;;;;6210486;23;20028;-78
2022/04/20 19:31:54;;;;;;;18.65;12.68;;;15.20;62.70;;;;;;6212724;23;20337;-78
2022/04/20 19:34:20;;;;;;;11.77;4.88;;;15.10;63.20;;;;;;6209954;23;20322;-78
2022/04/20 19:36:47;;;;;;;3.70;3.40;;;15.10;64.20;;;;;;6209678;23;20390;-78
2022/04/20 19:39:18;;;;;;;8.68;6.93;;;15.10;64.10;;;;;;6211406;23;20008;-79
2022/04/20 19:41:44;;;;;;;4.97;2.70;;;15.10;64.40;;;;;;6212171;23;20000;-78
2022/04/20 19:44:13;;;;;;;3.95;3.55;;;15.10;63.90;;;;;;6212004;23;20004;-78
2022/04/20 19:46:39;;;;;;;17.05;10.25;;;15.10;63.50;;;;;;6212665;23;20001;-79
2022/04/20 19:49:06;;;;;;;15.95;7.90;;;15.10;63.30;;;;;;6210041;23;20087;-78
2022/04/20 19:51:31;;;;;;;6.25;3.33;;;15.00;63.00;;;;;;6211358;23;20463;-78
2022/04/20 19:53:57;;;;;;;9.50;4.05;;;15.00;62.70;;;;;;6209311;23;20005;-79
2022/04/20 19:56:23;;;;;;;3.28;2.05;;;15.00;63.00;;;;;;6209905;23;20016;-79
2022/04/20 19:58:49;;;;;;;5.78;3.38;;;14.90;63.10;;;;;;6210643;23;20063;-77
2022/04/20 20:01:15;;;;;;;19.27;9.35;;;14.90;63.10;;;;;;6211652;23;20521;-78
2022/04/20 20:03:41;;;;;;;40.92;20.55;;;14.90;62.90;;;;;;6211347;23;20075;-78
2022/04/20 20:06:16;;;;;;;22.83;10.90;;;14.80;62.80;;;;;;6212509;23;20000;-79
2022/04/20 20:08:47;;;;;;;20.75;10.63;;;14.80;63.00;;;;;;6212196;23;19997;-78
2022/04/20 20:11:17;;;;;;;12.32;7.07;;;14.80;63.10;;;;;;6212017;23;19997;-79
2022/04/20 20:13:44;;;;;;;11.45;6.18;;;14.80;63.60;;;;;;6210688;23;20001;-79
2022/04/20 20:16:10;;;;;;;8.68;5.55;;;14.70;63.90;;;;;;6212451;23;20416;-79
2022/04/20 20:18:36;;;;;;;6.15;3.35;;;14.70;65.30;;;;;;6211641;23;20031;-78
2022/04/20 20:21:06;;;;;;;13.77;7.80;;;14.70;64.60;;;;;;6211351;23;20007;-78
2022/04/20 20:31:51;;;;;;;3.95;2.45;;;14.60;63.80;;;;;;6213067;23;20088;-78
2022/04/20 20:34:17;;;;;;;1.98;1.70;;;14.60;63.70;;;;;;6214226;23;20008;-79
2022/04/20 20:36:43;;;;;;;10.55;9.43;;;14.60;63.30;;;;;;6216747;23;20088;-78
2022/04/20 20:39:09;;;;;;;3.10;2.47;;;14.60;62.90;;;;;;6214502;23;20005;-78
2022/04/20 20:41:35;;;;;;;2.88;2.28;;;14.60;63.00;;;;;;6216729;23;20005;-78
2022/04/20 20:44:02;;;;;;;2.90;1.58;;;14.40;62.50;;;;;;6216524;23;20017;-78
2022/04/20 20:46:28;;;;;;;1.48;1.33;;;14.40;62.80;;;;;;6216956;23;20007;-78
2022/04/20 20:51:38;;;;;;;1.77;1.30;;;14.30;63.40;;;;;;6214424;23;20011;-79
2022/04/20 20:54:03;;;;;;;3.50;1.20;;;14.30;63.90;;;;;;6213731;23;20459;-78
2022/04/20 20:56:29;;;;;;;5.97;1.95;;;14.30;64.10;;;;;;6213386;23;19997;-79
2022/04/20 20:58:55;;;;;;;1.75;1.55;;;14.30;63.80;;;;;;6211521;23;20011;-78
2022/04/20 21:01:21;;;;;;;1.63;1.33;;;14.30;63.70;;;;;;6210632;23;20474;-78
2022/04/20 21:03:51;;;;;;;2.58;1.30;;;14.30;63.30;;;;;;6213019;23;20055;-78
2022/04/20 21:06:17;;;;;;;2.10;1.88;;;14.30;63.60;;;;;;6213575;23;19996;-79
2022/04/20 21:08:43;;;;;;;4.15;1.50;;;14.30;63.40;;;;;;6213061;23;20001;-79
2022/04/20 21:11:10;;;;;;;3.60;1.88;;;14.20;63.70;;;;;;6216193;23;20463;-78
2022/04/20 21:13:39;;;;;;;1.50;1.27;;;14.20;63.60;;;;;;6215665;23;20000;-72
2022/04/20 21:16:09;;;;;;;3.28;1.30;;;14.20;64.60;;;;;;6215478;23;20004;-72
2022/04/20 21:18:36;;;;;;;1.20;1.10;;;14.20;64.80;;;;;;6215896;23;20024;-72
2022/04/20 21:21:04;;;;;;;1.33;1.20;;;14.20;64.70;;;;;;6216098;23;20456;-72
2022/04/20 21:23:30;;;;;;;2.08;1.40;;;14.20;65.40;;;;;;6216012;23;20432;-72
2022/04/20 21:25:57;;;;;;;3.30;1.05;;;14.20;65.10;;;;;;6215873;23;20337;-72
2022/04/20 21:28:24;;;;;;;5.60;1.38;;;14.20;65.00;;;;;;6215643;23;20024;-72
2022/04/20 21:30:50;;;;;;;1.50;1.30;;;14.20;65.00;;;;;;6215737;23;20001;-72
2022/04/20 21:33:16;;;;;;;4.38;1.42;;;14.20;65.20;;;;;;6215747;23;20008;-72
2022/04/20 21:35:42;;;;;;;2.25;1.50;;;14.20;68.10;;;;;;6215516;23;20001;-72
2022/04/20 21:38:07;;;;;;;1.40;1.30;;;14.00;68.70;;;;;;6215725;23;20027;-72
2022/04/20 21:43:18;;;;;;;2.70;1.60;;;14.00;69.10;;;;;;6215702;23;20020;-72
2022/04/20 21:45:44;;;;;;;1.58;1.48;;;13.90;70.00;;;;;;6212483;23;20001;-72
2022/04/20 21:48:10;;;;;;;1.77;1.55;;;13.80;70.40;;;;;;6210710;23;20073;-74